Butler Center, Indiana
Current Conditions -  °F | °C
As of 10:35 PM on Sunday 23 Nov 2014 (Local Time) from KGWB Reporting Station
Moderate Rain Moderate Rain  
Wind Chill: 52°   Ceiling: 500
Heat Index: 52°   Visibility: 5mi
Dew Point: 50°   Wind: 5mph
Humidity: 94%   Direction: 130°SE
Pressure: 29.23"   Gusts: NA
Location:  41.3275°N, 85.1414°W
Report Text: KGWB 240335Z AUTO 13004KT 5SM RA OVC005 11/10 A2923 RMK AO2 P0013
Loading
Personal Weather Stations






























Interactive Weather Map New forecast layout! Learn more

10-Day Weather Forecast

Advertisements
Track Severe Weather on mobile